sensor_id;sensor_type;location;lat;lon;timestamp;P1;durP1;ratioP1;P2;durP2;ratioP2
65737;SDS011;52478;51.844;6.582;2022-09-24T00:00:53;4.90;;;2.28;;
65737;SDS011;52478;51.844;6.582;2022-09-24T00:03:19;6.30;;;2.40;;
65737;SDS011;52478;51.844;6.582;2022-09-24T00:05:47;5.75;;;2.28;;
65737;SDS011;52478;51.844;6.582;2022-09-24T00:08:15;5.53;;;2.25;;
65737;SDS011;52478;51.844;6.582;2022-09-24T00:10:43;5.93;;;2.40;;
65737;SDS011;52478;51.844;6.582;2022-09-24T00:13:12;5.88;;;2.53;;
65737;SDS011;52478;51.844;6.582;2022-09-24T00:15:41;5.40;;;2.03;;
65737;SDS011;52478;51.844;6.582;2022-09-24T00:18:09;5.30;;;2.40;;
65737;SDS011;52478;51.844;6.582;2022-09-24T00:20:35;5.10;;;2.08;;
65737;SDS011;52478;51.844;6.582;2022-09-24T00:23:03;5.30;;;2.20;;
65737;SDS011;52478;51.844;6.582;2022-09-24T00:25:29;5.03;;;2.30;;
65737;SDS011;52478;51.844;6.582;2022-09-24T00:28:15;5.88;;;2.13;;
65737;SDS011;52478;51.844;6.582;2022-09-24T00:30:42;5.18;;;2.75;;
65737;SDS011;52478;51.844;6.582;2022-09-24T00:33:09;5.20;;;2.13;;
65737;SDS011;52478;51.844;6.582;2022-09-24T00:38:04;6.70;;;2.60;;
65737;SDS011;52478;51.844;6.582;2022-09-24T00:40:31;5.35;;;2.55;;
65737;SDS011;52478;51.844;6.582;2022-09-24T00:42:59;5.80;;;2.20;;
65737;SDS011;52478;51.844;6.582;2022-09-24T00:45:28;5.55;;;2.05;;
65737;SDS011;52478;51.844;6.582;2022-09-24T00:47:56;5.15;;;1.90;;
65737;SDS011;52478;51.844;6.582;2022-09-24T00:50:24;4.90;;;2.17;;
65737;SDS011;52478;51.844;6.582;2022-09-24T00:52:56;4.88;;;1.95;;
65737;SDS011;52478;51.844;6.582;2022-09-24T00:55:26;5.47;;;2.10;;
65737;SDS011;52478;51.844;6.582;2022-09-24T01:00:21;5.40;;;2.15;;
65737;SDS011;52478;51.844;6.582;2022-09-24T01:02:51;5.25;;;2.53;;
65737;SDS011;52478;51.844;6.582;2022-09-24T01:05:21;5.72;;;2.40;;
65737;SDS011;52478;51.844;6.582;2022-09-24T01:07:48;6.30;;;2.20;;
65737;SDS011;52478;51.844;6.582;2022-09-24T01:10:14;5.03;;;2.08;;
65737;SDS011;52478;51.844;6.582;2022-09-24T01:13:02;5.30;;;2.35;;
65737;SDS011;52478;51.844;6.582;2022-09-24T01:15:40;5.32;;;2.40;;
65737;SDS011;52478;51.844;6.582;2022-09-24T01:18:15;5.80;;;2.60;;
65737;SDS011;52478;51.844;6.582;2022-09-24T01:20:50;5.22;;;2.10;;
65737;SDS011;52478;51.844;6.582;2022-09-24T01:23:37;5.72;;;2.40;;
65737;SDS011;52478;51.844;6.582;2022-09-24T01:29:23;5.30;;;2.30;;
65737;SDS011;52478;51.844;6.582;2022-09-24T01:31:56;5.30;;;2.20;;
65737;SDS011;52478;51.844;6.582;2022-09-24T01:34:28;5.85;;;2.40;;
65737;SDS011;52478;51.844;6.582;2022-09-24T01:37:03;5.72;;;2.40;;
65737;SDS011;52478;51.844;6.582;2022-09-24T01:39:30;5.93;;;2.40;;
65737;SDS011;52478;51.844;6.582;2022-09-24T01:41:59;6.05;;;2.70;;
65737;SDS011;52478;51.844;6.582;2022-09-24T01:46:55;5.50;;;2.50;;
65737;SDS011;52478;51.844;6.582;2022-09-24T01:49:23;5.30;;;2.40;;
65737;SDS011;52478;51.844;6.582;2022-09-24T01:51:50;5.00;;;2.00;;
65737;SDS011;52478;51.844;6.582;2022-09-24T01:54:21;5.35;;;2.42;;
65737;SDS011;52478;51.844;6.582;2022-09-24T01:56:52;5.35;;;2.47;;
65737;SDS011;52478;51.844;6.582;2022-09-24T01:59:25;5.70;;;2.50;;
65737;SDS011;52478;51.844;6.582;2022-09-24T02:02:01;5.43;;;2.55;;
65737;SDS011;52478;51.844;6.582;2022-09-24T02:04:34;6.05;;;2.45;;
65737;SDS011;52478;51.844;6.582;2022-09-24T02:07:08;5.68;;;2.38;;
65737;SDS011;52478;51.844;6.582;2022-09-24T02:09:38;5.55;;;2.20;;
65737;SDS011;52478;51.844;6.582;2022-09-24T02:12:06;6.35;;;2.53;;
65737;SDS011;52478;51.844;6.582;2022-09-24T02:14:38;4.95;;;2.03;;
65737;SDS011;52478;51.844;6.582;2022-09-24T02:17:07;5.65;;;2.67;;
65737;SDS011;52478;51.844;6.582;2022-09-24T02:19:36;6.45;;;2.40;;
65737;SDS011;52478;51.844;6.582;2022-09-24T02:22:04;5.95;;;2.75;;
65737;SDS011;52478;51.844;6.582;2022-09-24T02:24:33;5.40;;;2.30;;
65737;SDS011;52478;51.844;6.582;2022-09-24T02:27:15;6.00;;;2.75;;
65737;SDS011;52478;51.844;6.582;2022-09-24T02:29:44;7.28;;;2.42;;
65737;SDS011;52478;51.844;6.582;2022-09-24T02:32:12;5.50;;;2.30;;
65737;SDS011;52478;51.844;6.582;2022-09-24T02:34:42;5.85;;;2.50;;
65737;SDS011;52478;51.844;6.582;2022-09-24T02:37:12;6.18;;;2.22;;
65737;SDS011;52478;51.844;6.582;2022-09-24T02:39:40;5.43;;;2.30;;
65737;SDS011;52478;51.844;6.582;2022-09-24T02:44:34;5.70;;;2.35;;
65737;SDS011;52478;51.844;6.582;2022-09-24T02:47:02;6.03;;;2.35;;
65737;SDS011;52478;51.844;6.582;2022-09-24T02:49:30;6.03;;;2.72;;
65737;SDS011;52478;51.844;6.582;2022-09-24T02:51:57;6.35;;;2.95;;
65737;SDS011;52478;51.844;6.582;2022-09-24T02:54:23;5.35;;;2.40;;
65737;SDS011;52478;51.844;6.582;2022-09-24T02:56:50;6.47;;;3.00;;
65737;SDS011;52478;51.844;6.582;2022-09-24T03:01:43;6.13;;;2.20;;
65737;SDS011;52478;51.844;6.582;2022-09-24T03:04:11;7.05;;;2.60;;
65737;SDS011;52478;51.844;6.582;2022-09-24T03:06:38;5.82;;;2.63;;
65737;SDS011;52478;51.844;6.582;2022-09-24T03:09:05;5.85;;;2.30;;
65737;SDS011;52478;51.844;6.582;2022-09-24T03:11:31;6.53;;;2.78;;
65737;SDS011;52478;51.844;6.582;2022-09-24T03:13:59;6.10;;;2.78;;
65737;SDS011;52478;51.844;6.582;2022-09-24T03:16:26;6.15;;;2.72;;
65737;SDS011;52478;51.844;6.582;2022-09-24T03:18:52;5.43;;;2.60;;
65737;SDS011;52478;51.844;6.582;2022-09-24T03:21:20;5.97;;;2.50;;
65737;SDS011;52478;51.844;6.582;2022-09-24T03:23:47;6.15;;;2.50;;
65737;SDS011;52478;51.844;6.582;2022-09-24T03:26:14;5.90;;;2.53;;
65737;SDS011;52478;51.844;6.582;2022-09-24T03:28:42;6.93;;;2.58;;
65737;SDS011;52478;51.844;6.582;2022-09-24T03:31:09;6.20;;;3.10;;
65737;SDS011;52478;51.844;6.582;2022-09-24T03:33:35;5.60;;;2.70;;
65737;SDS011;52478;51.844;6.582;2022-09-24T03:36:04;6.38;;;3.03;;
65737;SDS011;52478;51.844;6.582;2022-09-24T03:38:33;5.13;;;2.30;;
65737;SDS011;52478;51.844;6.582;2022-09-24T03:41:01;5.50;;;2.60;;
65737;SDS011;52478;51.844;6.582;2022-09-24T03:43:29;5.72;;;2.45;;
65737;SDS011;52478;51.844;6.582;2022-09-24T03:45:56;6.30;;;3.17;;
65737;SDS011;52478;51.844;6.582;2022-09-24T03:48:23;6.40;;;2.88;;
65737;SDS011;52478;51.844;6.582;2022-09-24T03:50:50;6.65;;;2.50;;
65737;SDS011;52478;51.844;6.582;2022-09-24T03:53:17;6.05;;;2.72;;
65737;SDS011;52478;51.844;6.582;2022-09-24T03:55:47;7.15;;;2.92;;
65737;SDS011;52478;51.844;6.582;2022-09-24T03:58:19;6.15;;;2.92;;
65737;SDS011;52478;51.844;6.582;2022-09-24T04:00:46;5.82;;;2.95;;
65737;SDS011;52478;51.844;6.582;2022-09-24T04:03:13;5.70;;;2.30;;
65737;SDS011;52478;51.844;6.582;2022-09-24T04:05:39;6.35;;;2.78;;
65737;SDS011;52478;51.844;6.582;2022-09-24T04:08:07;5.53;;;2.53;;
65737;SDS011;52478;51.844;6.582;2022-09-24T04:10:33;6.25;;;2.70;;
65737;SDS011;52478;51.844;6.582;2022-09-24T04:13:01;5.78;;;2.65;;
65737;SDS011;52478;51.844;6.582;2022-09-24T04:15:28;6.55;;;2.80;;
65737;SDS011;52478;51.844;6.582;2022-09-24T04:17:55;5.63;;;2.40;;
65737;SDS011;52478;51.844;6.582;2022-09-24T04:20:23;6.22;;;2.95;;
65737;SDS011;52478;51.844;6.582;2022-09-24T04:22:52;6.30;;;2.85;;
65737;SDS011;52478;51.844;6.582;2022-09-24T04:25:20;5.80;;;2.58;;
65737;SDS011;52478;51.844;6.582;2022-09-24T04:27:51;7.57;;;2.70;;
65737;SDS011;52478;51.844;6.582;2022-09-24T04:30:19;6.63;;;2.70;;
65737;SDS011;52478;51.844;6.582;2022-09-24T04:32:46;6.68;;;2.85;;
65737;SDS011;52478;51.844;6.582;2022-09-24T04:35:15;7.30;;;3.30;;
65737;SDS011;52478;51.844;6.582;2022-09-24T04:37:42;6.28;;;3.13;;
65737;SDS011;52478;51.844;6.582;2022-09-24T04:40:09;6.30;;;3.10;;
65737;SDS011;52478;51.844;6.582;2022-09-24T04:42:36;6.50;;;2.88;;
65737;SDS011;52478;51.844;6.582;2022-09-24T04:45:03;5.57;;;2.75;;
65737;SDS011;52478;51.844;6.582;2022-09-24T04:47:32;6.07;;;3.15;;
65737;SDS011;52478;51.844;6.582;2022-09-24T04:49:58;6.03;;;2.72;;
65737;SDS011;52478;51.844;6.582;2022-09-24T04:52:26;6.78;;;3.40;;
65737;SDS011;52478;51.844;6.582;2022-09-24T04:57:22;6.60;;;3.08;;
65737;SDS011;52478;51.844;6.582;2022-09-24T05:02:15;6.28;;;2.83;;
65737;SDS011;52478;51.844;6.582;2022-09-24T05:04:44;6.20;;;3.42;;
65737;SDS011;52478;51.844;6.582;2022-09-24T05:07:11;6.50;;;2.90;;
65737;SDS011;52478;51.844;6.582;2022-09-24T05:09:37;6.85;;;3.08;;
65737;SDS011;52478;51.844;6.582;2022-09-24T05:12:04;7.43;;;3.15;;
65737;SDS011;52478;51.844;6.582;2022-09-24T05:14:30;6.68;;;3.00;;
65737;SDS011;52478;51.844;6.582;2022-09-24T05:16:57;6.00;;;2.92;;
65737;SDS011;52478;51.844;6.582;2022-09-24T05:19:23;6.43;;;3.40;;
65737;SDS011;52478;51.844;6.582;2022-09-24T05:21:51;6.85;;;3.53;;
65737;SDS011;52478;51.844;6.582;2022-09-24T05:24:18;6.95;;;3.17;;
65737;SDS011;52478;51.844;6.582;2022-09-24T05:26:44;7.13;;;2.65;;
65737;SDS011;52478;51.844;6.582;2022-09-24T05:29:28;7.05;;;2.97;;
65737;SDS011;52478;51.844;6.582;2022-09-24T05:31:55;6.65;;;3.30;;
65737;SDS011;52478;51.844;6.582;2022-09-24T05:34:21;6.65;;;3.60;;
65737;SDS011;52478;51.844;6.582;2022-09-24T05:36:48;6.05;;;2.70;;
65737;SDS011;52478;51.844;6.582;2022-09-24T05:39:15;6.15;;;2.75;;
65737;SDS011;52478;51.844;6.582;2022-09-24T05:41:42;6.25;;;2.88;;
65737;SDS011;52478;51.844;6.582;2022-09-24T05:44:08;7.82;;;3.60;;
65737;SDS011;52478;51.844;6.582;2022-09-24T05:46:35;7.40;;;3.42;;
65737;SDS011;52478;51.844;6.582;2022-09-24T05:49:02;6.53;;;3.15;;
65737;SDS011;52478;51.844;6.582;2022-09-24T05:51:28;7.20;;;3.40;;
65737;SDS011;52478;51.844;6.582;2022-09-24T05:53:55;7.22;;;3.40;;
65737;SDS011;52478;51.844;6.582;2022-09-24T05:56:22;6.53;;;3.20;;
65737;SDS011;52478;51.844;6.582;2022-09-24T05:58:49;6.60;;;3.30;;
65737;SDS011;52478;51.844;6.582;2022-09-24T06:01:15;6.75;;;3.50;;
65737;SDS011;52478;51.844;6.582;2022-09-24T06:03:42;6.60;;;3.22;;
65737;SDS011;52478;51.844;6.582;2022-09-24T06:06:08;6.50;;;3.10;;
65737;SDS011;52478;51.844;6.582;2022-09-24T06:08:35;5.82;;;2.90;;
65737;SDS011;52478;51.844;6.582;2022-09-24T06:11:03;6.15;;;2.75;;
65737;SDS011;52478;51.844;6.582;2022-09-24T06:13:33;6.30;;;3.13;;
65737;SDS011;52478;51.844;6.582;2022-09-24T06:16:00;6.95;;;3.17;;
65737;SDS011;52478;51.844;6.582;2022-09-24T06:18:26;5.80;;;2.60;;
65737;SDS011;52478;51.844;6.582;2022-09-24T06:20:53;6.88;;;3.00;;
65737;SDS011;52478;51.844;6.582;2022-09-24T06:23:20;7.28;;;3.03;;
65737;SDS011;52478;51.844;6.582;2022-09-24T06:25:47;6.45;;;3.22;;
65737;SDS011;52478;51.844;6.582;2022-09-24T06:28:14;6.47;;;3.10;;
65737;SDS011;52478;51.844;6.582;2022-09-24T06:30:42;6.47;;;3.10;;
65737;SDS011;52478;51.844;6.582;2022-09-24T06:33:09;6.22;;;2.95;;
65737;SDS011;52478;51.844;6.582;2022-09-24T06:35:37;6.55;;;3.58;;
65737;SDS011;52478;51.844;6.582;2022-09-24T06:38:05;7.00;;;3.15;;
65737;SDS011;52478;51.844;6.582;2022-09-24T06:40:33;7.43;;;3.45;;
65737;SDS011;52478;51.844;6.582;2022-09-24T06:43:00;7.18;;;3.90;;
65737;SDS011;52478;51.844;6.582;2022-09-24T06:45:26;7.05;;;3.17;;
65737;SDS011;52478;51.844;6.582;2022-09-24T06:47:54;6.63;;;3.10;;
65737;SDS011;52478;51.844;6.582;2022-09-24T06:50:22;6.13;;;2.92;;
65737;SDS011;52478;51.844;6.582;2022-09-24T06:52:50;6.85;;;3.10;;
65737;SDS011;52478;51.844;6.582;2022-09-24T06:55:16;7.50;;;2.95;;
65737;SDS011;52478;51.844;6.582;2022-09-24T07:00:10;6.88;;;3.00;;
65737;SDS011;52478;51.844;6.582;2022-09-24T07:02:38;6.82;;;3.50;;
65737;SDS011;52478;51.844;6.582;2022-09-24T07:05:07;7.20;;;3.13;;
65737;SDS011;52478;51.844;6.582;2022-09-24T07:07:34;6.65;;;3.13;;
65737;SDS011;52478;51.844;6.582;2022-09-24T07:10:03;6.82;;;3.65;;
65737;SDS011;52478;51.844;6.582;2022-09-24T07:12:32;6.70;;;3.20;;
65737;SDS011;52478;51.844;6.582;2022-09-24T07:15:00;6.80;;;2.97;;
65737;SDS011;52478;51.844;6.582;2022-09-24T07:17:26;7.10;;;3.40;;
65737;SDS011;52478;51.844;6.582;2022-09-24T07:19:54;6.90;;;3.67;;
65737;SDS011;52478;51.844;6.582;2022-09-24T07:22:22;6.18;;;3.10;;
65737;SDS011;52478;51.844;6.582;2022-09-24T07:24:48;6.95;;;3.60;;
65737;SDS011;52478;51.844;6.582;2022-09-24T07:27:15;6.57;;;2.78;;
65737;SDS011;52478;51.844;6.582;2022-09-24T07:29:43;7.07;;;3.47;;
65737;SDS011;52478;51.844;6.582;2022-09-24T07:32:10;6.40;;;2.97;;
65737;SDS011;52478;51.844;6.582;2022-09-24T07:34:36;7.20;;;3.53;;
65737;SDS011;52478;51.844;6.582;2022-09-24T07:37:03;7.22;;;3.35;;
65737;SDS011;52478;51.844;6.582;2022-09-24T07:39:31;6.40;;;3.03;;
65737;SDS011;52478;51.844;6.582;2022-09-24T07:41:58;6.93;;;3.10;;
65737;SDS011;52478;51.844;6.582;2022-09-24T07:44:26;7.10;;;3.40;;
65737;SDS011;52478;51.844;6.582;2022-09-24T07:46:53;7.00;;;3.33;;
65737;SDS011;52478;51.844;6.582;2022-09-24T07:49:19;7.07;;;3.03;;
65737;SDS011;52478;51.844;6.582;2022-09-24T07:51:47;8.85;;;3.72;;
65737;SDS011;52478;51.844;6.582;2022-09-24T07:54:13;6.78;;;3.35;;
65737;SDS011;52478;51.844;6.582;2022-09-24T07:56:42;6.45;;;3.22;;
65737;SDS011;52478;51.844;6.582;2022-09-24T07:59:09;7.05;;;3.42;;
65737;SDS011;52478;51.844;6.582;2022-09-24T08:01:36;6.70;;;3.47;;
65737;SDS011;52478;51.844;6.582;2022-09-24T08:04:03;7.57;;;3.83;;
65737;SDS011;52478;51.844;6.582;2022-09-24T08:06:32;6.93;;;3.65;;
65737;SDS011;52478;51.844;6.582;2022-09-24T08:08:59;6.93;;;3.08;;
65737;SDS011;52478;51.844;6.582;2022-09-24T08:11:26;7.65;;;3.67;;
65737;SDS011;52478;51.844;6.582;2022-09-24T08:13:55;7.10;;;3.88;;
65737;SDS011;52478;51.844;6.582;2022-09-24T08:16:22;6.47;;;3.35;;
65737;SDS011;52478;51.844;6.582;2022-09-24T08:18:50;6.85;;;3.55;;
65737;SDS011;52478;51.844;6.582;2022-09-24T08:21:18;7.10;;;3.80;;
65737;SDS011;52478;51.844;6.582;2022-09-24T08:23:44;7.07;;;3.25;;
65737;SDS011;52478;51.844;6.582;2022-09-24T08:26:11;7.45;;;3.78;;
65737;SDS011;52478;51.844;6.582;2022-09-24T08:28:38;6.47;;;3.60;;
65737;SDS011;52478;51.844;6.582;2022-09-24T08:31:09;6.57;;;3.13;;
65737;SDS011;52478;51.844;6.582;2022-09-24T08:33:37;7.03;;;3.35;;
65737;SDS011;52478;51.844;6.582;2022-09-24T08:36:05;6.97;;;3.40;;
65737;SDS011;52478;51.844;6.582;2022-09-24T08:38:33;6.53;;;3.20;;
65737;SDS011;52478;51.844;6.582;2022-09-24T08:43:34;7.22;;;3.17;;
65737;SDS011;52478;51.844;6.582;2022-09-24T08:46:11;6.40;;;3.10;;
65737;SDS011;52478;51.844;6.582;2022-09-24T08:51:27;8.25;;;3.67;;
65737;SDS011;52478;51.844;6.582;2022-09-24T08:54:01;6.78;;;3.35;;
65737;SDS011;52478;51.844;6.582;2022-09-24T08:56:33;6.70;;;3.63;;
65737;SDS011;52478;51.844;6.582;2022-09-24T08:59:04;6.45;;;3.47;;
65737;SDS011;52478;51.844;6.582;2022-09-24T09:01:41;6.75;;;3.30;;
65737;SDS011;52478;51.844;6.582;2022-09-24T09:04:17;6.70;;;3.67;;
65737;SDS011;52478;51.844;6.582;2022-09-24T09:07:03;6.95;;;3.70;;
65737;SDS011;52478;51.844;6.582;2022-09-24T09:09:40;6.68;;;3.60;;
65737;SDS011;52478;51.844;6.582;2022-09-24T09:12:11;6.65;;;3.15;;
65737;SDS011;52478;51.844;6.582;2022-09-24T09:14:41;6.30;;;3.00;;
65737;SDS011;52478;51.844;6.582;2022-09-24T09:17:14;7.38;;;3.55;;
65737;SDS011;52478;51.844;6.582;2022-09-24T09:19:54;6.85;;;3.65;;
65737;SDS011;52478;51.844;6.582;2022-09-24T09:22:22;6.63;;;3.25;;
65737;SDS011;52478;51.844;6.582;2022-09-24T09:24:53;7.35;;;3.05;;
65737;SDS011;52478;51.844;6.582;2022-09-24T09:27:24;6.85;;;3.50;;
65737;SDS011;52478;51.844;6.582;2022-09-24T09:29:53;7.68;;;3.30;;
65737;SDS011;52478;51.844;6.582;2022-09-24T09:32:26;6.60;;;2.97;;
65737;SDS011;52478;51.844;6.582;2022-09-24T09:35:10;7.90;;;3.03;;
65737;SDS011;52478;51.844;6.582;2022-09-24T09:37:45;8.70;;;3.30;;
65737;SDS011;52478;51.844;6.582;2022-09-24T09:42:58;5.80;;;2.70;;
65737;SDS011;52478;51.844;6.582;2022-09-24T09:47:58;6.20;;;2.88;;
65737;SDS011;52478;51.844;6.582;2022-09-24T09:50:27;6.93;;;3.13;;
65737;SDS011;52478;51.844;6.582;2022-09-24T09:52:56;7.75;;;3.70;;
65737;SDS011;52478;51.844;6.582;2022-09-24T09:55:23;7.78;;;3.55;;
65737;SDS011;52478;51.844;6.582;2022-09-24T09:57:52;7.78;;;3.60;;
65737;SDS011;52478;51.844;6.582;2022-09-24T10:00:23;11.45;;;3.42;;
65737;SDS011;52478;51.844;6.582;2022-09-24T10:02:51;8.20;;;3.50;;
65737;SDS011;52478;51.844;6.582;2022-09-24T10:07:48;8.80;;;3.80;;
65737;SDS011;52478;51.844;6.582;2022-09-24T10:10:16;8.60;;;3.42;;
65737;SDS011;52478;51.844;6.582;2022-09-24T10:12:43;8.40;;;3.50;;
65737;SDS011;52478;51.844;6.582;2022-09-24T10:15:15;7.20;;;3.40;;
65737;SDS011;52478;51.844;6.582;2022-09-24T10:17:43;7.65;;;3.22;;
65737;SDS011;52478;51.844;6.582;2022-09-24T10:20:14;8.23;;;3.40;;
65737;SDS011;52478;51.844;6.582;2022-09-24T10:22:47;8.05;;;3.50;;
65737;SDS011;52478;51.844;6.582;2022-09-24T10:25:16;8.70;;;3.38;;
65737;SDS011;52478;51.844;6.582;2022-09-24T10:27:45;7.43;;;3.97;;
65737;SDS011;52478;51.844;6.582;2022-09-24T10:30:13;8.05;;;2.97;;
65737;SDS011;52478;51.844;6.582;2022-09-24T10:32:59;7.65;;;3.03;;
65737;SDS011;52478;51.844;6.582;2022-09-24T10:35:27;9.52;;;3.13;;
65737;SDS011;52478;51.844;6.582;2022-09-24T10:37:57;10.13;;;3.88;;
65737;SDS011;52478;51.844;6.582;2022-09-24T10:40:25;6.88;;;3.10;;
65737;SDS011;52478;51.844;6.582;2022-09-24T10:42:55;9.30;;;3.42;;
65737;SDS011;52478;51.844;6.582;2022-09-24T10:45:37;7.00;;;3.03;;
65737;SDS011;52478;51.844;6.582;2022-09-24T10:48:25;7.15;;;3.60;;
65737;SDS011;52478;51.844;6.582;2022-09-24T10:50:55;7.93;;;3.53;;
65737;SDS011;52478;51.844;6.582;2022-09-24T10:53:31;8.02;;;3.65;;
65737;SDS011;52478;51.844;6.582;2022-09-24T10:58:45;7.40;;;3.00;;
65737;SDS011;52478;51.844;6.582;2022-09-24T11:01:29;7.85;;;3.42;;
65737;SDS011;52478;51.844;6.582;2022-09-24T11:07:08;8.15;;;3.72;;
65737;SDS011;52478;51.844;6.582;2022-09-24T11:09:59;7.88;;;3.10;;
65737;SDS011;52478;51.844;6.582;2022-09-24T11:12:35;8.27;;;3.53;;
65737;SDS011;52478;51.844;6.582;2022-09-24T11:15:13;7.25;;;3.00;;
65737;SDS011;52478;51.844;6.582;2022-09-24T11:17:49;7.53;;;3.65;;
65737;SDS011;52478;51.844;6.582;2022-09-24T11:20:32;6.65;;;2.80;;
65737;SDS011;52478;51.844;6.582;2022-09-24T11:23:15;7.40;;;3.15;;
65737;SDS011;52478;51.844;6.582;2022-09-24T11:25:53;7.15;;;3.78;;
65737;SDS011;52478;51.844;6.582;2022-09-24T11:28:36;9.05;;;3.90;;
65737;SDS011;52478;51.844;6.582;2022-09-24T11:31:25;8.68;;;3.50;;
65737;SDS011;52478;51.844;6.582;2022-09-24T11:34:03;8.18;;;3.33;;
65737;SDS011;52478;51.844;6.582;2022-09-24T11:36:45;7.25;;;3.08;;
65737;SDS011;52478;51.844;6.582;2022-09-24T11:39:27;7.80;;;3.65;;
65737;SDS011;52478;51.844;6.582;2022-09-24T11:42:06;8.68;;;3.42;;
65737;SDS011;52478;51.844;6.582;2022-09-24T11:47:35;8.00;;;3.58;;
65737;SDS011;52478;51.844;6.582;2022-09-24T11:50:22;8.68;;;3.63;;
65737;SDS011;52478;51.844;6.582;2022-09-24T11:52:59;7.85;;;3.67;;
65737;SDS011;52478;51.844;6.582;2022-09-24T11:55:32;9.60;;;3.40;;
65737;SDS011;52478;51.844;6.582;2022-09-24T11:58:17;7.63;;;3.55;;
65737;SDS011;52478;51.844;6.582;2022-09-24T12:00:51;7.07;;;3.20;;
65737;SDS011;52478;51.844;6.582;2022-09-24T12:03:21;8.07;;;3.38;;
65737;SDS011;52478;51.844;6.582;2022-09-24T12:05:50;9.27;;;3.50;;
65737;SDS011;52478;51.844;6.582;2022-09-24T12:08:21;6.65;;;3.08;;
65737;SDS011;52478;51.844;6.582;2022-09-24T12:10:55;7.70;;;3.30;;
65737;SDS011;52478;51.844;6.582;2022-09-24T12:13:28;8.80;;;3.85;;
65737;SDS011;52478;51.844;6.582;2022-09-24T12:15:59;6.97;;;3.20;;
65737;SDS011;52478;51.844;6.582;2022-09-24T12:18:30;7.38;;;3.50;;
65737;SDS011;52478;51.844;6.582;2022-09-24T12:21:03;7.22;;;3.40;;
65737;SDS011;52478;51.844;6.582;2022-09-24T12:23:36;11.48;;;3.70;;
65737;SDS011;52478;51.844;6.582;2022-09-24T12:26:05;7.72;;;3.10;;
65737;SDS011;52478;51.844;6.582;2022-09-24T12:28:37;10.18;;;3.88;;
65737;SDS011;52478;51.844;6.582;2022-09-24T12:31:27;6.57;;;3.25;;
65737;SDS011;52478;51.844;6.582;2022-09-24T12:34:18;7.65;;;3.45;;
65737;SDS011;52478;51.844;6.582;2022-09-24T12:36:56;9.40;;;3.60;;
65737;SDS011;52478;51.844;6.582;2022-09-24T12:39:28;7.93;;;3.20;;
65737;SDS011;52478;51.844;6.582;2022-09-24T12:41:59;8.20;;;3.65;;
65737;SDS011;52478;51.844;6.582;2022-09-24T12:44:35;8.85;;;4.00;;
65737;SDS011;52478;51.844;6.582;2022-09-24T12:47:12;7.95;;;3.20;;
65737;SDS011;52478;51.844;6.582;2022-09-24T12:49:42;7.47;;;3.63;;
65737;SDS011;52478;51.844;6.582;2022-09-24T12:52:17;7.03;;;3.17;;
65737;SDS011;52478;51.844;6.582;2022-09-24T12:54:52;8.43;;;3.03;;
65737;SDS011;52478;51.844;6.582;2022-09-24T12:57:23;7.60;;;3.47;;
65737;SDS011;52478;51.844;6.582;2022-09-24T12:59:53;6.90;;;3.50;;
65737;SDS011;52478;51.844;6.582;2022-09-24T13:02:22;7.15;;;3.88;;
65737;SDS011;52478;51.844;6.582;2022-09-24T13:04:51;6.70;;;3.00;;
65737;SDS011;52478;51.844;6.582;2022-09-24T13:07:39;6.68;;;3.10;;
65737;SDS011;52478;51.844;6.582;2022-09-24T13:10:22;7.90;;;3.25;;
65737;SDS011;52478;51.844;6.582;2022-09-24T13:12:51;7.35;;;3.58;;
65737;SDS011;52478;51.844;6.582;2022-09-24T13:18:03;6.95;;;3.30;;
65737;SDS011;52478;51.844;6.582;2022-09-24T13:20:33;6.70;;;3.85;;
65737;SDS011;52478;51.844;6.582;2022-09-24T13:23:10;7.18;;;3.47;;
65737;SDS011;52478;51.844;6.582;2022-09-24T13:25:38;7.22;;;3.00;;
65737;SDS011;52478;51.844;6.582;2022-09-24T13:28:18;8.60;;;3.40;;
65737;SDS011;52478;51.844;6.582;2022-09-24T13:30:48;6.95;;;3.00;;
65737;SDS011;52478;51.844;6.582;2022-09-24T13:33:20;7.25;;;2.92;;
65737;SDS011;52478;51.844;6.582;2022-09-24T13:35:54;7.80;;;3.15;;
65737;SDS011;52478;51.844;6.582;2022-09-24T13:38:27;6.75;;;2.97;;
65737;SDS011;52478;51.844;6.582;2022-09-24T13:40:57;7.18;;;3.55;;
65737;SDS011;52478;51.844;6.582;2022-09-24T13:43:32;9.77;;;3.75;;
65737;SDS011;52478;51.844;6.582;2022-09-24T13:46:06;6.30;;;3.42;;
65737;SDS011;52478;51.844;6.582;2022-09-24T13:48:39;8.77;;;3.85;;
65737;SDS011;52478;51.844;6.582;2022-09-24T13:51:10;6.85;;;3.10;;
65737;SDS011;52478;51.844;6.582;2022-09-24T13:53:38;8.32;;;3.03;;
65737;SDS011;52478;51.844;6.582;2022-09-24T13:56:11;7.00;;;3.45;;
65737;SDS011;52478;51.844;6.582;2022-09-24T13:58:39;8.00;;;3.67;;
65737;SDS011;52478;51.844;6.582;2022-09-24T14:01:11;7.68;;;3.33;;
65737;SDS011;52478;51.844;6.582;2022-09-24T14:03:40;7.43;;;3.42;;
65737;SDS011;52478;51.844;6.582;2022-09-24T14:06:16;8.60;;;3.10;;
65737;SDS011;52478;51.844;6.582;2022-09-24T14:08:46;8.00;;;3.50;;
65737;SDS011;52478;51.844;6.582;2022-09-24T14:11:14;7.50;;;3.13;;
65737;SDS011;52478;51.844;6.582;2022-09-24T14:13:42;7.60;;;3.25;;
65737;SDS011;52478;51.844;6.582;2022-09-24T14:16:12;8.02;;;3.13;;
65737;SDS011;52478;51.844;6.582;2022-09-24T14:18:41;7.05;;;2.80;;
65737;SDS011;52478;51.844;6.582;2022-09-24T14:21:09;7.22;;;3.30;;
65737;SDS011;52478;51.844;6.582;2022-09-24T14:23:39;7.47;;;3.10;;
65737;SDS011;52478;51.844;6.582;2022-09-24T14:26:13;8.20;;;3.20;;
65737;SDS011;52478;51.844;6.582;2022-09-24T14:28:48;7.28;;;3.25;;
65737;SDS011;52478;51.844;6.582;2022-09-24T14:33:43;9.00;;;3.70;;
65737;SDS011;52478;51.844;6.582;2022-09-24T14:36:09;7.30;;;3.47;;
65737;SDS011;52478;51.844;6.582;2022-09-24T14:38:43;7.55;;;3.17;;
65737;SDS011;52478;51.844;6.582;2022-09-24T14:41:15;7.00;;;3.40;;
65737;SDS011;52478;51.844;6.582;2022-09-24T14:43:45;8.50;;;3.47;;
65737;SDS011;52478;51.844;6.582;2022-09-24T14:46:17;10.07;;;4.45;;
65737;SDS011;52478;51.844;6.582;2022-09-24T14:48:48;8.18;;;3.97;;
65737;SDS011;52478;51.844;6.582;2022-09-24T14:51:21;8.80;;;3.63;;
65737;SDS011;52478;51.844;6.582;2022-09-24T14:53:55;8.25;;;3.83;;
65737;SDS011;52478;51.844;6.582;2022-09-24T14:56:25;8.88;;;3.70;;
65737;SDS011;52478;51.844;6.582;2022-09-24T14:58:53;8.18;;;4.00;;
65737;SDS011;52478;51.844;6.582;2022-09-24T15:01:22;7.30;;;3.95;;
65737;SDS011;52478;51.844;6.582;2022-09-24T15:03:55;6.88;;;3.35;;
65737;SDS011;52478;51.844;6.582;2022-09-24T15:06:24;8.80;;;3.65;;
65737;SDS011;52478;51.844;6.582;2022-09-24T15:08:53;6.82;;;3.70;;
65737;SDS011;52478;51.844;6.582;2022-09-24T15:11:23;8.52;;;3.75;;
65737;SDS011;52478;51.844;6.582;2022-09-24T15:13:56;7.53;;;3.45;;
65737;SDS011;52478;51.844;6.582;2022-09-24T15:16:29;8.13;;;4.05;;
65737;SDS011;52478;51.844;6.582;2022-09-24T15:19:03;8.25;;;3.80;;
65737;SDS011;52478;51.844;6.582;2022-09-24T15:21:39;9.00;;;4.40;;
65737;SDS011;52478;51.844;6.582;2022-09-24T15:24:06;8.32;;;3.72;;
65737;SDS011;52478;51.844;6.582;2022-09-24T15:26:33;7.10;;;3.53;;
65737;SDS011;52478;51.844;6.582;2022-09-24T15:29:03;7.47;;;3.80;;
65737;SDS011;52478;51.844;6.582;2022-09-24T15:31:32;7.93;;;4.20;;
65737;SDS011;52478;51.844;6.582;2022-09-24T15:33:59;7.47;;;3.85;;
65737;SDS011;52478;51.844;6.582;2022-09-24T15:36:25;7.10;;;4.03;;
65737;SDS011;52478;51.844;6.582;2022-09-24T15:38:53;8.57;;;3.95;;
65737;SDS011;52478;51.844;6.582;2022-09-24T15:41:26;7.53;;;4.30;;
65737;SDS011;52478;51.844;6.582;2022-09-24T15:43:54;7.22;;;3.42;;
65737;SDS011;52478;51.844;6.582;2022-09-24T15:46:22;8.77;;;4.00;;
65737;SDS011;52478;51.844;6.582;2022-09-24T15:48:50;7.28;;;3.55;;
65737;SDS011;52478;51.844;6.582;2022-09-24T15:51:17;8.07;;;3.45;;
65737;SDS011;52478;51.844;6.582;2022-09-24T15:53:46;7.15;;;3.83;;
65737;SDS011;52478;51.844;6.582;2022-09-24T15:56:13;6.82;;;3.30;;